sensor_id;sensor_type;location;lat;lon;timestamp;P1;durP1;ratioP1;P2;durP2;ratioP2
2408;SDS011;8463;48.094;7.970;2023-08-17T00:01:09;5.23;;;4.57;;
2408;SDS011;8463;48.094;7.970;2023-08-17T00:03:35;4.67;;;4.27;;
2408;SDS011;8463;48.094;7.970;2023-08-17T00:06:01;5.30;;;4.90;;
2408;SDS011;8463;48.094;7.970;2023-08-17T00:08:27;4.40;;;4.00;;
2408;SDS011;8463;48.094;7.970;2023-08-17T00:10:53;5.93;;;5.43;;
2408;SDS011;8463;48.094;7.970;2023-08-17T00:13:19;5.03;;;4.60;;
2408;SDS011;8463;48.094;7.970;2023-08-17T00:15:45;4.57;;;4.17;;
2408;SDS011;8463;48.094;7.970;2023-08-17T00:18:11;5.57;;;5.07;;
2408;SDS011;8463;48.094;7.970;2023-08-17T00:20:37;8.50;;;4.43;;
2408;SDS011;8463;48.094;7.970;2023-08-17T00:23:03;5.17;;;4.77;;
2408;SDS011;8463;48.094;7.970;2023-08-17T00:25:29;4.87;;;4.47;;
2408;SDS011;8463;48.094;7.970;2023-08-17T00:27:54;5.23;;;4.57;;
2408;SDS011;8463;48.094;7.970;2023-08-17T00:30:20;5.20;;;4.80;;
2408;SDS011;8463;48.094;7.970;2023-08-17T00:32:48;6.83;;;4.43;;
2408;SDS011;8463;48.094;7.970;2023-08-17T00:35:14;4.57;;;4.17;;
2408;SDS011;8463;48.094;7.970;2023-08-17T00:37:40;6.43;;;4.60;;
2408;SDS011;8463;48.094;7.970;2023-08-17T00:40:05;5.63;;;4.60;;
2408;SDS011;8463;48.094;7.970;2023-08-17T00:42:31;5.13;;;4.40;;
2408;SDS011;8463;48.094;7.970;2023-08-17T00:44:57;4.90;;;4.50;;
2408;SDS011;8463;48.094;7.970;2023-08-17T00:47:23;7.00;;;4.27;;
2408;SDS011;8463;48.094;7.970;2023-08-17T00:49:49;4.43;;;4.13;;
2408;SDS011;8463;48.094;7.970;2023-08-17T00:52:16;5.23;;;4.83;;
2408;SDS011;8463;48.094;7.970;2023-08-17T00:54:42;5.07;;;4.37;;
2408;SDS011;8463;48.094;7.970;2023-08-17T00:57:08;5.17;;;4.77;;
2408;SDS011;8463;48.094;7.970;2023-08-17T00:59:34;4.87;;;4.43;;
2408;SDS011;8463;48.094;7.970;2023-08-17T01:02:00;5.27;;;4.80;;
2408;SDS011;8463;48.094;7.970;2023-08-17T01:04:27;5.00;;;4.50;;
2408;SDS011;8463;48.094;7.970;2023-08-17T01:06:52;6.33;;;4.80;;
2408;SDS011;8463;48.094;7.970;2023-08-17T01:09:18;4.40;;;4.03;;
2408;SDS011;8463;48.094;7.970;2023-08-17T01:11:57;5.33;;;4.73;;
2408;SDS011;8463;48.094;7.970;2023-08-17T01:14:31;4.57;;;4.17;;
2408;SDS011;8463;48.094;7.970;2023-08-17T01:17:06;7.27;;;4.97;;
2408;SDS011;8463;48.094;7.970;2023-08-17T01:19:37;5.50;;;5.00;;
2408;SDS011;8463;48.094;7.970;2023-08-17T01:22:05;5.17;;;4.67;;
2408;SDS011;8463;48.094;7.970;2023-08-17T01:24:33;5.10;;;4.70;;
2408;SDS011;8463;48.094;7.970;2023-08-17T01:26:59;4.77;;;4.23;;
2408;SDS011;8463;48.094;7.970;2023-08-17T01:29:25;4.87;;;4.47;;
2408;SDS011;8463;48.094;7.970;2023-08-17T01:34:28;6.00;;;4.73;;
2408;SDS011;8463;48.094;7.970;2023-08-17T01:36:57;4.37;;;3.97;;
2408;SDS011;8463;48.094;7.970;2023-08-17T01:39:27;10.90;;;5.17;;
2408;SDS011;8463;48.094;7.970;2023-08-17T01:41:59;5.00;;;4.50;;
2408;SDS011;8463;48.094;7.970;2023-08-17T01:44:26;6.93;;;5.10;;
2408;SDS011;8463;48.094;7.970;2023-08-17T01:46:54;5.30;;;4.80;;
2408;SDS011;8463;48.094;7.970;2023-08-17T01:49:19;5.17;;;4.77;;
2408;SDS011;8463;48.094;7.970;2023-08-17T01:51:45;7.13;;;4.80;;
2408;SDS011;8463;48.094;7.970;2023-08-17T01:54:11;5.20;;;4.77;;
2408;SDS011;8463;48.094;7.970;2023-08-17T01:56:37;5.10;;;4.60;;
2408;SDS011;8463;48.094;7.970;2023-08-17T01:59:02;6.00;;;4.70;;
2408;SDS011;8463;48.094;7.970;2023-08-17T02:01:28;6.03;;;4.37;;
2408;SDS011;8463;48.094;7.970;2023-08-17T02:03:53;5.83;;;5.33;;
2408;SDS011;8463;48.094;7.970;2023-08-17T02:06:19;5.87;;;5.37;;
2408;SDS011;8463;48.094;7.970;2023-08-17T02:08:45;6.50;;;5.90;;
2408;SDS011;8463;48.094;7.970;2023-08-17T02:11:11;5.33;;;4.83;;
2408;SDS011;8463;48.094;7.970;2023-08-17T02:13:36;8.47;;;5.43;;
2408;SDS011;8463;48.094;7.970;2023-08-17T02:16:03;4.87;;;4.43;;
2408;SDS011;8463;48.094;7.970;2023-08-17T02:18:43;5.37;;;4.97;;
2408;SDS011;8463;48.094;7.970;2023-08-17T02:21:09;5.20;;;4.70;;
2408;SDS011;8463;48.094;7.970;2023-08-17T02:23:34;5.23;;;4.83;;
2408;SDS011;8463;48.094;7.970;2023-08-17T02:26:00;6.60;;;5.03;;
2408;SDS011;8463;48.094;7.970;2023-08-17T02:28:25;5.33;;;4.83;;
2408;SDS011;8463;48.094;7.970;2023-08-17T02:30:57;6.37;;;5.80;;
2408;SDS011;8463;48.094;7.970;2023-08-17T02:33:23;5.83;;;4.40;;
2408;SDS011;8463;48.094;7.970;2023-08-17T02:35:49;6.40;;;5.83;;
2408;SDS011;8463;48.094;7.970;2023-08-17T02:38:15;5.70;;;5.10;;
2408;SDS011;8463;48.094;7.970;2023-08-17T02:40:41;5.43;;;4.93;;
2408;SDS011;8463;48.094;7.970;2023-08-17T02:43:09;6.10;;;5.60;;
2408;SDS011;8463;48.094;7.970;2023-08-17T02:45:35;5.30;;;4.90;;
2408;SDS011;8463;48.094;7.970;2023-08-17T02:48:01;6.13;;;4.60;;
2408;SDS011;8463;48.094;7.970;2023-08-17T02:50:26;6.80;;;5.80;;
2408;SDS011;8463;48.094;7.970;2023-08-17T02:52:52;7.97;;;5.80;;
2408;SDS011;8463;48.094;7.970;2023-08-17T02:55:21;5.40;;;4.87;;
2408;SDS011;8463;48.094;7.970;2023-08-17T02:57:46;4.73;;;4.33;;
2408;SDS011;8463;48.094;7.970;2023-08-17T03:00:13;4.57;;;4.17;;
2408;SDS011;8463;48.094;7.970;2023-08-17T03:02:39;4.60;;;4.20;;
2408;SDS011;8463;48.094;7.970;2023-08-17T03:05:05;6.73;;;4.87;;
2408;SDS011;8463;48.094;7.970;2023-08-17T03:07:31;6.30;;;5.63;;
2408;SDS011;8463;48.094;7.970;2023-08-17T03:09:56;6.23;;;5.60;;
2408;SDS011;8463;48.094;7.970;2023-08-17T03:12:22;6.50;;;5.13;;
2408;SDS011;8463;48.094;7.970;2023-08-17T03:14:47;5.50;;;5.00;;
2408;SDS011;8463;48.094;7.970;2023-08-17T03:17:13;5.63;;;5.13;;
2408;SDS011;8463;48.094;7.970;2023-08-17T03:19:39;6.90;;;5.20;;
2408;SDS011;8463;48.094;7.970;2023-08-17T03:22:04;5.77;;;5.37;;
2408;SDS011;8463;48.094;7.970;2023-08-17T03:24:30;6.70;;;5.17;;
2408;SDS011;8463;48.094;7.970;2023-08-17T03:26:55;5.40;;;4.90;;
2408;SDS011;8463;48.094;7.970;2023-08-17T03:29:21;5.80;;;5.20;;
2408;SDS011;8463;48.094;7.970;2023-08-17T03:31:46;5.37;;;4.87;;
2408;SDS011;8463;48.094;7.970;2023-08-17T03:34:14;7.63;;;5.00;;
2408;SDS011;8463;48.094;7.970;2023-08-17T03:36:40;6.07;;;5.27;;
2408;SDS011;8463;48.094;7.970;2023-08-17T03:39:06;6.60;;;5.37;;
2408;SDS011;8463;48.094;7.970;2023-08-17T03:41:32;5.53;;;5.03;;
2408;SDS011;8463;48.094;7.970;2023-08-17T03:43:57;5.53;;;5.00;;
2408;SDS011;8463;48.094;7.970;2023-08-17T03:46:23;8.03;;;5.33;;
2408;SDS011;8463;48.094;7.970;2023-08-17T03:48:49;4.83;;;4.43;;
2408;SDS011;8463;48.094;7.970;2023-08-17T03:51:17;6.80;;;5.50;;
2408;SDS011;8463;48.094;7.970;2023-08-17T03:53:45;5.07;;;4.67;;
2408;SDS011;8463;48.094;7.970;2023-08-17T03:56:11;5.90;;;5.10;;
2408;SDS011;8463;48.094;7.970;2023-08-17T03:58:37;7.90;;;4.67;;
2408;SDS011;8463;48.094;7.970;2023-08-17T04:01:02;6.00;;;5.40;;
2408;SDS011;8463;48.094;7.970;2023-08-17T04:03:30;5.43;;;4.93;;
2408;SDS011;8463;48.094;7.970;2023-08-17T04:05:56;5.50;;;5.03;;
2408;SDS011;8463;48.094;7.970;2023-08-17T04:08:21;5.70;;;5.20;;
2408;SDS011;8463;48.094;7.970;2023-08-17T04:10:57;4.63;;;4.33;;
2408;SDS011;8463;48.094;7.970;2023-08-17T04:13:26;5.33;;;4.93;;
2408;SDS011;8463;48.094;7.970;2023-08-17T04:15:52;5.30;;;4.90;;
2408;SDS011;8463;48.094;7.970;2023-08-17T04:18:18;5.70;;;5.20;;
2408;SDS011;8463;48.094;7.970;2023-08-17T04:20:43;5.63;;;5.13;;
2408;SDS011;8463;48.094;7.970;2023-08-17T04:23:09;5.10;;;4.57;;
2408;SDS011;8463;48.094;7.970;2023-08-17T04:25:34;4.80;;;4.40;;
2408;SDS011;8463;48.094;7.970;2023-08-17T04:28:00;6.07;;;5.43;;
2408;SDS011;8463;48.094;7.970;2023-08-17T04:30:26;6.30;;;5.63;;
2408;SDS011;8463;48.094;7.970;2023-08-17T04:32:51;6.03;;;4.30;;
2408;SDS011;8463;48.094;7.970;2023-08-17T04:35:20;5.90;;;5.17;;
2408;SDS011;8463;48.094;7.970;2023-08-17T04:37:46;5.03;;;4.20;;
2408;SDS011;8463;48.094;7.970;2023-08-17T04:40:14;5.13;;;4.67;;
2408;SDS011;8463;48.094;7.970;2023-08-17T04:42:40;4.90;;;4.40;;
2408;SDS011;8463;48.094;7.970;2023-08-17T04:45:06;5.50;;;5.00;;
2408;SDS011;8463;48.094;7.970;2023-08-17T04:47:32;5.40;;;4.50;;
2408;SDS011;8463;48.094;7.970;2023-08-17T04:49:58;4.50;;;4.10;;
2408;SDS011;8463;48.094;7.970;2023-08-17T04:52:23;6.60;;;5.73;;
2408;SDS011;8463;48.094;7.970;2023-08-17T04:54:49;6.00;;;5.50;;
2408;SDS011;8463;48.094;7.970;2023-08-17T04:57:15;5.70;;;4.70;;
2408;SDS011;8463;48.094;7.970;2023-08-17T04:59:41;5.90;;;5.40;;
2408;SDS011;8463;48.094;7.970;2023-08-17T05:02:09;5.17;;;4.73;;
2408;SDS011;8463;48.094;7.970;2023-08-17T05:04:35;5.73;;;4.70;;
2408;SDS011;8463;48.094;7.970;2023-08-17T05:07:04;5.97;;;5.10;;
2408;SDS011;8463;48.094;7.970;2023-08-17T05:09:33;5.17;;;4.67;;
2408;SDS011;8463;48.094;7.970;2023-08-17T05:11:58;4.90;;;4.50;;
2408;SDS011;8463;48.094;7.970;2023-08-17T05:14:25;6.00;;;5.50;;
2408;SDS011;8463;48.094;7.970;2023-08-17T05:16:51;6.00;;;5.30;;
2408;SDS011;8463;48.094;7.970;2023-08-17T05:19:16;6.50;;;5.90;;
2408;SDS011;8463;48.094;7.970;2023-08-17T05:21:42;6.27;;;5.67;;
2408;SDS011;8463;48.094;7.970;2023-08-17T05:24:09;6.50;;;5.77;;
2408;SDS011;8463;48.094;7.970;2023-08-17T05:26:35;7.47;;;6.77;;
2408;SDS011;8463;48.094;7.970;2023-08-17T05:29:00;6.77;;;6.17;;
2408;SDS011;8463;48.094;7.970;2023-08-17T05:31:32;10.00;;;8.13;;
2408;SDS011;8463;48.094;7.970;2023-08-17T05:33:57;7.53;;;6.83;;
2408;SDS011;8463;48.094;7.970;2023-08-17T05:36:23;7.60;;;6.90;;
2408;SDS011;8463;48.094;7.970;2023-08-17T05:38:51;8.27;;;7.40;;
2408;SDS011;8463;48.094;7.970;2023-08-17T05:41:16;6.40;;;5.27;;
2408;SDS011;8463;48.094;7.970;2023-08-17T05:43:48;6.57;;;5.93;;
2408;SDS011;8463;48.094;7.970;2023-08-17T05:46:14;7.37;;;6.30;;
2408;SDS011;8463;48.094;7.970;2023-08-17T05:48:39;7.03;;;6.43;;
2408;SDS011;8463;48.094;7.970;2023-08-17T05:51:06;5.80;;;5.30;;
2408;SDS011;8463;48.094;7.970;2023-08-17T05:53:31;5.57;;;5.10;;
2408;SDS011;8463;48.094;7.970;2023-08-17T05:55:57;5.60;;;5.13;;
2408;SDS011;8463;48.094;7.970;2023-08-17T05:58:23;5.90;;;5.40;;
2408;SDS011;8463;48.094;7.970;2023-08-17T06:00:49;5.73;;;4.77;;
2408;SDS011;8463;48.094;7.970;2023-08-17T06:03:14;5.47;;;4.90;;
2408;SDS011;8463;48.094;7.970;2023-08-17T06:05:41;6.77;;;5.23;;
2408;SDS011;8463;48.094;7.970;2023-08-17T06:08:06;5.93;;;5.33;;
2408;SDS011;8463;48.094;7.970;2023-08-17T06:10:34;5.40;;;4.90;;
2408;SDS011;8463;48.094;7.970;2023-08-17T06:13:00;6.80;;;5.67;;
2408;SDS011;8463;48.094;7.970;2023-08-17T06:15:26;5.97;;;5.27;;
2408;SDS011;8463;48.094;7.970;2023-08-17T06:17:53;5.73;;;5.10;;
2408;SDS011;8463;48.094;7.970;2023-08-17T06:20:18;6.50;;;6.00;;
2408;SDS011;8463;48.094;7.970;2023-08-17T06:22:50;7.00;;;5.80;;
2408;SDS011;8463;48.094;7.970;2023-08-17T06:25:15;5.70;;;5.10;;
2408;SDS011;8463;48.094;7.970;2023-08-17T06:27:41;6.70;;;5.20;;
2408;SDS011;8463;48.094;7.970;2023-08-17T06:30:10;5.97;;;5.47;;
2408;SDS011;8463;48.094;7.970;2023-08-17T06:32:36;6.63;;;5.43;;
2408;SDS011;8463;48.094;7.970;2023-08-17T06:35:02;6.13;;;5.63;;
2408;SDS011;8463;48.094;7.970;2023-08-17T06:37:30;6.13;;;5.63;;
2408;SDS011;8463;48.094;7.970;2023-08-17T06:39:56;5.80;;;5.30;;
2408;SDS011;8463;48.094;7.970;2023-08-17T06:42:21;5.60;;;5.10;;
2408;SDS011;8463;48.094;7.970;2023-08-17T06:44:47;6.93;;;5.30;;
2408;SDS011;8463;48.094;7.970;2023-08-17T06:47:15;6.20;;;4.63;;
2408;SDS011;8463;48.094;7.970;2023-08-17T06:49:46;5.73;;;5.23;;
2408;SDS011;8463;48.094;7.970;2023-08-17T06:52:12;7.30;;;5.90;;
2408;SDS011;8463;48.094;7.970;2023-08-17T06:54:38;5.03;;;4.63;;
2408;SDS011;8463;48.094;7.970;2023-08-17T06:57:03;5.73;;;5.23;;
2408;SDS011;8463;48.094;7.970;2023-08-17T06:59:29;5.47;;;5.07;;
2408;SDS011;8463;48.094;7.970;2023-08-17T07:01:55;6.33;;;5.53;;
2408;SDS011;8463;48.094;7.970;2023-08-17T07:04:21;6.60;;;5.90;;
2408;SDS011;8463;48.094;7.970;2023-08-17T07:06:48;5.37;;;4.97;;
2408;SDS011;8463;48.094;7.970;2023-08-17T07:09:17;7.53;;;5.50;;
2408;SDS011;8463;48.094;7.970;2023-08-17T07:11:42;7.73;;;6.27;;
2408;SDS011;8463;48.094;7.970;2023-08-17T07:14:11;7.17;;;6.47;;
2408;SDS011;8463;48.094;7.970;2023-08-17T07:16:40;6.60;;;6.00;;
2408;SDS011;8463;48.094;7.970;2023-08-17T07:19:07;7.00;;;6.30;;
2408;SDS011;8463;48.094;7.970;2023-08-17T07:21:33;8.47;;;7.67;;
2408;SDS011;8463;48.094;7.970;2023-08-17T07:24:04;7.27;;;6.67;;
2408;SDS011;8463;48.094;7.970;2023-08-17T07:26:40;7.90;;;7.10;;
2408;SDS011;8463;48.094;7.970;2023-08-17T07:29:11;7.50;;;6.80;;
2408;SDS011;8463;48.094;7.970;2023-08-17T07:31:37;7.00;;;6.33;;
2408;SDS011;8463;48.094;7.970;2023-08-17T07:34:04;8.00;;;7.30;;
2408;SDS011;8463;48.094;7.970;2023-08-17T07:36:33;7.93;;;7.23;;
2408;SDS011;8463;48.094;7.970;2023-08-17T07:38:59;7.93;;;7.20;;
2408;SDS011;8463;48.094;7.970;2023-08-17T07:41:25;7.90;;;7.20;;
2408;SDS011;8463;48.094;7.970;2023-08-17T07:43:51;8.17;;;7.43;;
2408;SDS011;8463;48.094;7.970;2023-08-17T07:46:17;7.63;;;6.90;;
2408;SDS011;8463;48.094;7.970;2023-08-17T07:48:42;6.70;;;6.13;;
2408;SDS011;8463;48.094;7.970;2023-08-17T07:51:08;7.83;;;7.07;;
2408;SDS011;8463;48.094;7.970;2023-08-17T07:53:40;8.07;;;7.13;;
2408;SDS011;8463;48.094;7.970;2023-08-17T07:56:05;9.37;;;7.27;;
2408;SDS011;8463;48.094;7.970;2023-08-17T07:58:31;10.23;;;8.00;;
2408;SDS011;8463;48.094;7.970;2023-08-17T08:01:02;9.23;;;8.33;;
2408;SDS011;8463;48.094;7.970;2023-08-17T08:03:28;8.93;;;7.50;;
2408;SDS011;8463;48.094;7.970;2023-08-17T08:05:54;10.90;;;8.70;;
2408;SDS011;8463;48.094;7.970;2023-08-17T08:08:20;10.60;;;9.53;;
2408;SDS011;8463;48.094;7.970;2023-08-17T08:10:45;12.30;;;11.00;;
2408;SDS011;8463;48.094;7.970;2023-08-17T08:13:11;12.37;;;11.07;;
2408;SDS011;8463;48.094;7.970;2023-08-17T08:15:45;11.40;;;10.20;;
2408;SDS011;8463;48.094;7.970;2023-08-17T08:18:12;10.83;;;9.70;;
2408;SDS011;8463;48.094;7.970;2023-08-17T08:20:40;10.30;;;9.23;;
2408;SDS011;8463;48.094;7.970;2023-08-17T08:23:06;10.97;;;9.97;;
2408;SDS011;8463;48.094;7.970;2023-08-17T08:25:31;9.30;;;8.50;;
2408;SDS011;8463;48.094;7.970;2023-08-17T08:27:57;11.50;;;9.30;;
2408;SDS011;8463;48.094;7.970;2023-08-17T08:30:23;12.33;;;10.50;;
2408;SDS011;8463;48.094;7.970;2023-08-17T08:32:48;9.40;;;8.53;;
2408;SDS011;8463;48.094;7.970;2023-08-17T08:35:22;11.13;;;9.83;;
2408;SDS011;8463;48.094;7.970;2023-08-17T08:37:53;9.67;;;8.77;;
2408;SDS011;8463;48.094;7.970;2023-08-17T08:40:20;9.97;;;8.97;;
2408;SDS011;8463;48.094;7.970;2023-08-17T08:42:53;9.53;;;8.60;;
2408;SDS011;8463;48.094;7.970;2023-08-17T08:45:19;10.40;;;9.40;;
2408;SDS011;8463;48.094;7.970;2023-08-17T08:47:52;9.13;;;8.27;;
2408;SDS011;8463;48.094;7.970;2023-08-17T08:50:24;10.00;;;9.00;;
2408;SDS011;8463;48.094;7.970;2023-08-17T08:53:03;12.40;;;9.20;;
2408;SDS011;8463;48.094;7.970;2023-08-17T08:55:56;9.67;;;8.23;;
2408;SDS011;8463;48.094;7.970;2023-08-17T08:58:27;11.90;;;10.50;;
2408;SDS011;8463;48.094;7.970;2023-08-17T09:00:57;10.90;;;9.90;;
2408;SDS011;8463;48.094;7.970;2023-08-17T09:03:23;11.60;;;10.50;;
2408;SDS011;8463;48.094;7.970;2023-08-17T09:05:53;12.37;;;10.50;;
2408;SDS011;8463;48.094;7.970;2023-08-17T09:08:22;10.77;;;9.73;;
2408;SDS011;8463;48.094;7.970;2023-08-17T09:10:53;12.23;;;11.00;;
2408;SDS011;8463;48.094;7.970;2023-08-17T09:13:19;11.40;;;10.30;;
2408;SDS011;8463;48.094;7.970;2023-08-17T09:15:45;9.60;;;8.70;;
2408;SDS011;8463;48.094;7.970;2023-08-17T09:18:11;9.73;;;8.87;;
2408;SDS011;8463;48.094;7.970;2023-08-17T09:20:37;10.87;;;9.87;;
2408;SDS011;8463;48.094;7.970;2023-08-17T09:23:25;10.27;;;9.00;;
2408;SDS011;8463;48.094;7.970;2023-08-17T09:25:50;10.07;;;8.70;;
2408;SDS011;8463;48.094;7.970;2023-08-17T09:28:26;11.33;;;10.20;;
2408;SDS011;8463;48.094;7.970;2023-08-17T09:30:58;10.40;;;9.40;;
2408;SDS011;8463;48.094;7.970;2023-08-17T09:33:26;10.77;;;9.70;;
2408;SDS011;8463;48.094;7.970;2023-08-17T09:35:53;10.77;;;9.67;;
2408;SDS011;8463;48.094;7.970;2023-08-17T09:38:25;9.63;;;8.63;;
2408;SDS011;8463;48.094;7.970;2023-08-17T09:40:51;11.33;;;9.30;;
2408;SDS011;8463;48.094;7.970;2023-08-17T09:43:17;10.90;;;9.80;;
2408;SDS011;8463;48.094;7.970;2023-08-17T09:45:45;10.30;;;8.90;;
2408;SDS011;8463;48.094;7.970;2023-08-17T09:48:20;10.40;;;9.13;;
2408;SDS011;8463;48.094;7.970;2023-08-17T09:50:46;12.20;;;10.20;;
2408;SDS011;8463;48.094;7.970;2023-08-17T09:53:13;9.83;;;8.93;;
2408;SDS011;8463;48.094;7.970;2023-08-17T09:55:45;10.10;;;9.20;;
2408;SDS011;8463;48.094;7.970;2023-08-17T09:58:12;10.67;;;9.70;;
2408;SDS011;8463;48.094;7.970;2023-08-17T10:00:44;8.87;;;7.90;;
2408;SDS011;8463;48.094;7.970;2023-08-17T10:03:16;8.43;;;7.70;;
2408;SDS011;8463;48.094;7.970;2023-08-17T10:05:44;13.53;;;8.43;;
2408;SDS011;8463;48.094;7.970;2023-08-17T10:08:20;11.63;;;7.50;;
2408;SDS011;8463;48.094;7.970;2023-08-17T10:10:56;8.77;;;7.97;;
2408;SDS011;8463;48.094;7.970;2023-08-17T10:14:02;8.67;;;7.83;;
2408;SDS011;8463;48.094;7.970;2023-08-17T10:21:56;9.10;;;7.70;;
2408;SDS011;8463;48.094;7.970;2023-08-17T10:24:33;8.17;;;7.10;;
2408;SDS011;8463;48.094;7.970;2023-08-17T10:27:01;8.50;;;7.57;;
2408;SDS011;8463;48.094;7.970;2023-08-17T10:29:38;7.90;;;7.20;;
2408;SDS011;8463;48.094;7.970;2023-08-17T10:32:05;7.93;;;7.20;;
2408;SDS011;8463;48.094;7.970;2023-08-17T10:34:37;8.97;;;8.27;;
2408;SDS011;8463;48.094;7.970;2023-08-17T10:37:03;8.90;;;7.67;;
2408;SDS011;8463;48.094;7.970;2023-08-17T10:39:30;9.03;;;8.13;;
2408;SDS011;8463;48.094;7.970;2023-08-17T10:41:57;7.33;;;6.63;;
2408;SDS011;8463;48.094;7.970;2023-08-17T10:47:25;7.33;;;6.63;;
2408;SDS011;8463;48.094;7.970;2023-08-17T10:55:00;8.77;;;6.67;;
2408;SDS011;8463;48.094;7.970;2023-08-17T10:57:37;7.47;;;6.87;;
2408;SDS011;8463;48.094;7.970;2023-08-17T11:00:07;6.73;;;6.13;;
2408;SDS011;8463;48.094;7.970;2023-08-17T11:02:59;7.00;;;6.40;;
2408;SDS011;8463;48.094;7.970;2023-08-17T11:08:08;6.57;;;5.87;;
2408;SDS011;8463;48.094;7.970;2023-08-17T11:10:35;6.10;;;5.60;;
2408;SDS011;8463;48.094;7.970;2023-08-17T11:13:03;4.87;;;4.47;;
2408;SDS011;8463;48.094;7.970;2023-08-17T11:15:36;7.17;;;5.53;;
2408;SDS011;8463;48.094;7.970;2023-08-17T11:18:10;5.43;;;4.93;;
2408;SDS011;8463;48.094;7.970;2023-08-17T11:20:38;5.90;;;5.40;;
2408;SDS011;8463;48.094;7.970;2023-08-17T11:23:09;4.43;;;3.93;;
2408;SDS011;8463;48.094;7.970;2023-08-17T11:25:36;3.53;;;3.23;;
2408;SDS011;8463;48.094;7.970;2023-08-17T11:28:08;4.20;;;3.90;;
2408;SDS011;8463;48.094;7.970;2023-08-17T11:30:35;4.40;;;4.10;;
2408;SDS011;8463;48.094;7.970;2023-08-17T11:33:06;3.77;;;3.47;;
2408;SDS011;8463;48.094;7.970;2023-08-17T11:35:35;3.67;;;3.37;;
2408;SDS011;8463;48.094;7.970;2023-08-17T11:38:01;5.47;;;3.80;;
2408;SDS011;8463;48.094;7.970;2023-08-17T11:40:28;5.20;;;4.30;;
2408;SDS011;8463;48.094;7.970;2023-08-17T11:43:00;4.50;;;4.10;;
2408;SDS011;8463;48.094;7.970;2023-08-17T11:45:26;4.80;;;4.37;;
2408;SDS011;8463;48.094;7.970;2023-08-17T11:47:52;4.30;;;3.90;;
2408;SDS011;8463;48.094;7.970;2023-08-17T11:50:18;4.13;;;3.80;;
2408;SDS011;8463;48.094;7.970;2023-08-17T11:52:45;4.07;;;3.67;;
2408;SDS011;8463;48.094;7.970;2023-08-17T11:55:15;5.13;;;4.63;;
2408;SDS011;8463;48.094;7.970;2023-08-17T11:57:43;4.80;;;4.10;;
2408;SDS011;8463;48.094;7.970;2023-08-17T12:00:08;4.70;;;4.30;;
2408;SDS011;8463;48.094;7.970;2023-08-17T12:02:37;3.83;;;3.53;;
2408;SDS011;8463;48.094;7.970;2023-08-17T12:05:07;6.60;;;4.07;;
2408;SDS011;8463;48.094;7.970;2023-08-17T12:07:34;4.00;;;3.60;;
2408;SDS011;8463;48.094;7.970;2023-08-17T12:10:01;5.60;;;4.10;;
2408;SDS011;8463;48.094;7.970;2023-08-17T12:12:28;5.30;;;3.60;;
2408;SDS011;8463;48.094;7.970;2023-08-17T12:14:56;3.80;;;3.50;;
2408;SDS011;8463;48.094;7.970;2023-08-17T12:17:23;4.90;;;3.70;;
2408;SDS011;8463;48.094;7.970;2023-08-17T12:19:49;4.00;;;3.60;;
2408;SDS011;8463;48.094;7.970;2023-08-17T12:22:23;4.23;;;3.83;;
2408;SDS011;8463;48.094;7.970;2023-08-17T12:24:49;4.37;;;4.00;;
2408;SDS011;8463;48.094;7.970;2023-08-17T12:27:15;4.60;;;4.20;;
2408;SDS011;8463;48.094;7.970;2023-08-17T12:29:47;4.60;;;3.60;;
2408;SDS011;8463;48.094;7.970;2023-08-17T12:32:17;3.70;;;3.40;;
2408;SDS011;8463;48.094;7.970;2023-08-17T12:34:46;5.00;;;4.07;;
2408;SDS011;8463;48.094;7.970;2023-08-17T12:37:12;4.40;;;4.00;;
2408;SDS011;8463;48.094;7.970;2023-08-17T12:39:46;5.83;;;4.57;;
2408;SDS011;8463;48.094;7.970;2023-08-17T12:42:13;4.10;;;3.53;;
2408;SDS011;8463;48.094;7.970;2023-08-17T12:44:41;3.60;;;3.40;;
2408;SDS011;8463;48.094;7.970;2023-08-17T12:47:07;5.60;;;3.60;;
2408;SDS011;8463;48.094;7.970;2023-08-17T12:49:33;4.60;;;4.00;;
2408;SDS011;8463;48.094;7.970;2023-08-17T12:52:03;7.30;;;5.17;;
2408;SDS011;8463;48.094;7.970;2023-08-17T12:54:29;3.40;;;3.10;;
2408;SDS011;8463;48.094;7.970;2023-08-17T12:56:54;8.30;;;5.33;;
2408;SDS011;8463;48.094;7.970;2023-08-17T12:59:20;4.20;;;3.43;;
2408;SDS011;8463;48.094;7.970;2023-08-17T13:01:46;5.03;;;3.70;;
2408;SDS011;8463;48.094;7.970;2023-08-17T13:04:11;5.80;;;4.70;;
2408;SDS011;8463;48.094;7.970;2023-08-17T13:06:37;3.83;;;3.47;;
2408;SDS011;8463;48.094;7.970;2023-08-17T13:09:03;3.33;;;3.13;;
2408;SDS011;8463;48.094;7.970;2023-08-17T13:11:30;3.77;;;3.43;;
2408;SDS011;8463;48.094;7.970;2023-08-17T13:13:57;4.70;;;4.07;;
2408;SDS011;8463;48.094;7.970;2023-08-17T13:16:22;4.40;;;3.97;;
2408;SDS011;8463;48.094;7.970;2023-08-17T13:18:48;5.07;;;3.70;;
2408;SDS011;8463;48.094;7.970;2023-08-17T13:21:14;3.80;;;3.50;;
2408;SDS011;8463;48.094;7.970;2023-08-17T13:23:41;4.50;;;4.07;;
2408;SDS011;8463;48.094;7.970;2023-08-17T13:26:07;4.53;;;3.30;;
2408;SDS011;8463;48.094;7.970;2023-08-17T13:28:33;5.43;;;3.40;;
2408;SDS011;8463;48.094;7.970;2023-08-17T13:30:58;3.93;;;3.20;;
2408;SDS011;8463;48.094;7.970;2023-08-17T13:33:24;5.80;;;4.10;;
2408;SDS011;8463;48.094;7.970;2023-08-17T13:35:49;3.80;;;3.30;;
2408;SDS011;8463;48.094;7.970;2023-08-17T13:38:16;3.97;;;3.20;;
2408;SDS011;8463;48.094;7.970;2023-08-17T13:40:44;4.30;;;3.77;;
2408;SDS011;8463;48.094;7.970;2023-08-17T13:43:10;3.57;;;3.27;;
2408;SDS011;8463;48.094;7.970;2023-08-17T13:45:41;5.13;;;3.70;;
2408;SDS011;8463;48.094;7.970;2023-08-17T13:48:07;4.00;;;3.40;;
2408;SDS011;8463;48.094;7.970;2023-08-17T13:50:34;5.03;;;3.77;;
2408;SDS011;8463;48.094;7.970;2023-08-17T13:53:02;4.37;;;4.03;;
2408;SDS011;8463;48.094;7.970;2023-08-17T13:55:28;5.20;;;3.90;;
2408;SDS011;8463;48.094;7.970;2023-08-17T13:57:54;3.97;;;3.50;;
2408;SDS011;8463;48.094;7.970;2023-08-17T14:00:21;4.07;;;3.57;;
2408;SDS011;8463;48.094;7.970;2023-08-17T14:02:47;4.90;;;3.60;;
2408;SDS011;8463;48.094;7.970;2023-08-17T14:05:13;4.60;;;3.37;;
2408;SDS011;8463;48.094;7.970;2023-08-17T14:07:39;4.07;;;3.67;;
2408;SDS011;8463;48.094;7.970;2023-08-17T14:10:05;4.53;;;4.23;;
2408;SDS011;8463;48.094;7.970;2023-08-17T14:12:31;3.97;;;3.50;;
2408;SDS011;8463;48.094;7.970;2023-08-17T14:14:57;6.03;;;3.70;;
2408;SDS011;8463;48.094;7.970;2023-08-17T14:17:23;3.87;;;3.57;;
2408;SDS011;8463;48.094;7.970;2023-08-17T14:19:49;4.83;;;4.43;;
2408;SDS011;8463;48.094;7.970;2023-08-17T14:22:14;4.00;;;3.43;;
2408;SDS011;8463;48.094;7.970;2023-08-17T14:24:40;4.37;;;3.93;;
2408;SDS011;8463;48.094;7.970;2023-08-17T14:27:06;4.60;;;4.20;;
2408;SDS011;8463;48.094;7.970;2023-08-17T14:29:31;4.30;;;3.90;;
2408;SDS011;8463;48.094;7.970;2023-08-17T14:31:57;5.83;;;4.37;;
2408;SDS011;8463;48.094;7.970;2023-08-17T14:34:25;6.50;;;4.70;;
2408;SDS011;8463;48.094;7.970;2023-08-17T14:36:51;4.90;;;4.50;;
2408;SDS011;8463;48.094;7.970;2023-08-17T14:39:16;5.63;;;4.00;;
2408;SDS011;8463;48.094;7.970;2023-08-17T14:41:42;4.27;;;3.87;;
2408;SDS011;8463;48.094;7.970;2023-08-17T14:44:08;4.93;;;4.50;;
2408;SDS011;8463;48.094;7.970;2023-08-17T14:46:33;4.57;;;4.27;;
2408;SDS011;8463;48.094;7.970;2023-08-17T14:48:59;4.90;;;4.50;;
2408;SDS011;8463;48.094;7.970;2023-08-17T14:51:28;5.67;;;5.03;;
2408;SDS011;8463;48.094;7.970;2023-08-17T14:53:54;5.10;;;4.60;;
2408;SDS011;8463;48.094;7.970;2023-08-17T14:56:20;4.97;;;4.57;;
2408;SDS011;8463;48.094;7.970;2023-08-17T14:58:47;7.70;;;5.10;;
2408;SDS011;8463;48.094;7.970;2023-08-17T15:01:13;4.80;;;4.43;;
2408;SDS011;8463;48.094;7.970;2023-08-17T15:03:39;5.23;;;4.63;;
2408;SDS011;8463;48.094;7.970;2023-08-17T15:06:05;4.90;;;4.50;;
2408;SDS011;8463;48.094;7.970;2023-08-17T15:08:31;4.97;;;4.57;;
2408;SDS011;8463;48.094;7.970;2023-08-17T15:10:57;4.90;;;4.50;;
2408;SDS011;8463;48.094;7.970;2023-08-17T15:13:29;5.37;;;4.90;;
2408;SDS011;8463;48.094;7.970;2023-08-17T15:15:55;4.23;;;3.83;;
2408;SDS011;8463;48.094;7.970;2023-08-17T15:18:21;5.00;;;4.23;;
2408;SDS011;8463;48.094;7.970;2023-08-17T15:20:46;5.10;;;4.03;;
2408;SDS011;8463;48.094;7.970;2023-08-17T15:23:12;4.73;;;4.33;;
2408;SDS011;8463;48.094;7.970;2023-08-17T15:25:38;4.23;;;3.70;;
2408;SDS011;8463;48.094;7.970;2023-08-17T15:28:03;6.83;;;4.93;;
2408;SDS011;8463;48.094;7.970;2023-08-17T15:30:29;4.60;;;4.17;;
2408;SDS011;8463;48.094;7.970;2023-08-17T15:32:57;4.87;;;4.47;;